Time;durP1;ratioP1;P1;durP2;ratioP2;P2;SDS_P1;SDS_P2;PMS_P1;PMS_P2;Temp;Humidity;BMP_temperature;BMP_pressure;BME280_temperature;BME280_humidity;BME280_pressure;Samples;Min_cycle;Max_cycle;Signal;HPM_P1;HPM_P2
2022/04/13 00:00:30;;;;;;;6.30;5.32;;;13.70;75.80;;;;;;5054562;28;20265;-67
2022/04/13 00:02:57;;;;;;;7.50;5.40;;;13.70;75.80;;;;;;5064717;28;20210;-66
2022/04/13 00:05:25;;;;;;;7.32;5.50;;;13.70;75.80;;;;;;5065596;28;20223;-67
2022/04/13 00:07:52;;;;;;;7.22;6.38;;;13.70;75.80;;;;;;5055863;28;20274;-67
2022/04/13 00:10:19;;;;;;;6.15;5.55;;;13.70;75.90;;;;;;5058974;28;20230;-66
2022/04/13 00:12:47;;;;;;;7.10;6.13;;;13.60;75.90;;;;;;5068294;28;20205;-67
2022/04/13 00:15:14;;;;;;;7.55;5.97;;;13.60;76.20;;;;;;5071274;28;20231;-69
2022/04/13 00:17:41;;;;;;;6.63;5.85;;;13.70;76.30;;;;;;5059273;28;20215;-67
2022/04/13 00:20:08;;;;;;;7.00;5.82;;;13.70;76.40;;;;;;5069572;28;20198;-67
2022/04/13 00:22:35;;;;;;;7.85;5.80;;;13.70;76.40;;;;;;5054687;28;20214;-68
2022/04/13 00:25:04;;;;;;;7.82;6.18;;;13.60;76.50;;;;;;5065019;28;20235;-67
2022/04/13 00:27:33;;;;;;;8.73;6.30;;;13.70;76.80;;;;;;5060742;28;20272;-67
2022/04/13 00:30:02;;;;;;;6.93;5.55;;;13.60;76.90;;;;;;5055975;28;20221;-67
2022/04/13 00:32:29;;;;;;;12.57;5.65;;;13.60;77.10;;;;;;5060753;28;20296;-68
2022/04/13 00:34:57;;;;;;;9.77;5.88;;;13.60;77.30;;;;;;5056098;28;20224;-67
2022/04/13 00:37:25;;;;;;;10.50;6.45;;;13.50;77.40;;;;;;5068185;28;20211;-68
2022/04/13 00:39:52;;;;;;;9.25;6.18;;;13.50;77.50;;;;;;5053877;28;20194;-68
2022/04/13 00:42:19;;;;;;;7.28;5.70;;;13.60;77.80;;;;;;5054802;28;20289;-67
2022/04/13 00:44:46;;;;;;;8.30;6.47;;;13.50;77.90;;;;;;5056010;28;20354;-67
2022/04/13 00:47:14;;;;;;;9.43;6.05;;;13.50;78.10;;;;;;5060191;28;20712;-66
2022/04/13 00:49:41;;;;;;;7.82;5.68;;;13.40;78.30;;;;;;5066575;28;20245;-67
2022/04/13 00:52:11;;;;;;;7.45;5.60;;;13.40;78.60;;;;;;5047392;28;20289;-66
2022/04/13 00:54:42;;;;;;;9.73;5.50;;;13.40;79.00;;;;;;5058559;28;20227;-67
2022/04/13 00:57:11;;;;;;;6.90;5.40;;;13.30;79.30;;;;;;5056884;28;20215;-67
2022/04/13 00:59:39;;;;;;;9.88;6.03;;;13.30;79.50;;;;;;5058285;28;20208;-68
2022/04/13 01:02:08;;;;;;;7.38;5.65;;;13.20;79.70;;;;;;5057960;28;20291;-67
2022/04/13 01:04:37;;;;;;;6.45;5.32;;;13.20;79.80;;;;;;5047913;28;20309;-67
2022/04/13 01:07:08;;;;;;;10.35;5.55;;;13.20;80.10;;;;;;5062137;28;20228;-68
2022/04/13 01:09:35;;;;;;;8.60;5.53;;;13.10;80.40;;;;;;5055249;28;20264;-67
2022/04/13 01:12:03;;;;;;;7.47;5.82;;;13.10;80.50;;;;;;5053551;28;20296;-68
2022/04/13 01:14:30;;;;;;;7.82;6.43;;;13.10;80.80;;;;;;5056434;28;20221;-66
2022/04/13 01:16:57;;;;;;;7.20;4.90;;;13.10;81.00;;;;;;5055241;28;20206;-67
2022/04/13 01:19:25;;;;;;;9.10;6.32;;;13.10;81.10;;;;;;5053534;28;20290;-67
2022/04/13 01:21:58;;;;;;;7.57;6.10;;;13.10;81.30;;;;;;5061316;28;20236;-68
2022/04/13 01:24:29;;;;;;;8.63;5.90;;;13.10;81.40;;;;;;5050416;28;20229;-67
2022/04/13 01:26:57;;;;;;;7.85;5.85;;;13.10;81.50;;;;;;5061577;28;20206;-65
2022/04/13 01:29:24;;;;;;;7.53;5.55;;;13.00;81.80;;;;;;5058896;28;20225;-68
2022/04/13 01:31:53;;;;;;;8.40;6.70;;;13.00;81.90;;;;;;5053886;28;20292;-68
2022/04/13 01:34:21;;;;;;;8.52;6.30;;;13.00;82.00;;;;;;5050067;28;20234;-68
2022/04/13 01:36:48;;;;;;;8.18;5.93;;;13.00;82.20;;;;;;5062597;28;20206;-68
2022/04/13 01:39:14;;;;;;;7.50;5.85;;;13.00;82.40;;;;;;5054490;28;20297;-67
2022/04/13 01:41:43;;;;;;;11.25;5.85;;;13.00;82.50;;;;;;5054272;28;20296;-68
2022/04/13 01:44:10;;;;;;;10.82;5.28;;;13.00;82.50;;;;;;5060083;28;20223;-68
2022/04/13 01:46:37;;;;;;;10.27;6.13;;;13.00;82.40;;;;;;5052739;28;20305;-68
2022/04/13 01:49:04;;;;;;;8.40;6.50;;;13.00;82.70;;;;;;5054991;28;20631;-67
2022/04/13 01:51:31;;;;;;;9.30;6.50;;;13.00;82.80;;;;;;5058534;28;20218;-69
2022/04/13 01:53:58;;;;;;;11.00;6.10;;;13.00;83.00;;;;;;5056782;28;20325;-69
2022/04/13 01:56:25;;;;;;;8.70;5.93;;;13.00;83.30;;;;;;5059774;28;20198;-68
2022/04/13 01:58:55;;;;;;;7.78;6.30;;;13.00;83.70;;;;;;5058203;28;20667;-66
2022/04/13 02:01:21;;;;;;;8.80;6.80;;;13.00;84.30;;;;;;5059918;28;20279;-67
2022/04/13 02:03:50;;;;;;;8.90;5.50;;;13.00;83.70;;;;;;5053259;28;20202;-67
2022/04/13 02:06:16;;;;;;;14.50;6.82;;;13.00;83.80;;;;;;5048766;28;20200;-68
2022/04/13 02:08:43;;;;;;;7.35;5.25;;;12.90;83.90;;;;;;5054028;28;20207;-68
2022/04/13 02:11:10;;;;;;;10.52;6.28;;;12.90;84.00;;;;;;5056182;28;20295;-67
2022/04/13 02:13:39;;;;;;;7.97;6.47;;;12.90;84.10;;;;;;5059730;28;20635;-69
2022/04/13 02:16:08;;;;;;;7.70;5.95;;;12.90;84.00;;;;;;5056253;28;20674;-68
2022/04/13 02:18:36;;;;;;;8.57;6.57;;;12.90;84.30;;;;;;5053865;28;20268;-66
2022/04/13 02:21:03;;;;;;;12.80;6.53;;;12.90;84.00;;;;;;5061219;28;20200;-68
2022/04/13 02:23:30;;;;;;;13.68;7.40;;;12.90;84.30;;;;;;5052159;28;20202;-67
2022/04/13 02:25:57;;;;;;;8.85;6.40;;;12.80;84.50;;;;;;5052822;28;20213;-67
2022/04/13 02:28:24;;;;;;;12.88;6.22;;;12.70;84.70;;;;;;5064764;28;20278;-67
2022/04/13 02:30:51;;;;;;;9.73;5.90;;;12.60;85.20;;;;;;5055663;28;20262;-67
2022/04/13 02:33:21;;;;;;;8.70;5.80;;;12.60;85.50;;;;;;5056232;28;20332;-67
2022/04/13 02:35:48;;;;;;;8.18;4.90;;;12.60;86.60;;;;;;5050365;28;20284;-67
2022/04/13 02:38:16;;;;;;;10.85;7.30;;;12.40;86.60;;;;;;5054032;28;20192;-68
2022/04/13 02:40:43;;;;;;;13.25;5.80;;;12.40;87.10;;;;;;5056539;28;20202;-67
2022/04/13 02:43:11;;;;;;;8.38;5.93;;;12.40;87.90;;;;;;5054336;28;20208;-67
2022/04/13 02:45:38;;;;;;;10.38;6.03;;;12.30;87.60;;;;;;5055815;28;20228;-65
2022/04/13 02:48:06;;;;;;;6.45;5.75;;;12.20;88.10;;;;;;5064158;28;20207;-67
2022/04/13 02:50:34;;;;;;;7.80;5.85;;;12.20;88.80;;;;;;5051769;28;20224;-69
2022/04/13 02:53:01;;;;;;;8.30;6.00;;;12.10;89.10;;;;;;5052483;28;20207;-67
2022/04/13 02:55:30;;;;;;;8.68;7.03;;;12.10;89.40;;;;;;5062139;28;20230;-68
2022/04/13 02:57:57;;;;;;;13.77;7.20;;;12.10;89.80;;;;;;5061254;28;20205;-68
2022/04/13 03:00:24;;;;;;;8.85;6.68;;;12.20;90.00;;;;;;5046934;28;20266;-67
2022/04/13 03:02:51;;;;;;;9.35;6.45;;;12.20;90.10;;;;;;5065779;28;20303;-68
2022/04/13 03:05:18;;;;;;;7.88;6.13;;;12.00;90.40;;;;;;5052446;28;20308;-67
2022/04/13 03:07:46;;;;;;;9.65;6.53;;;12.00;90.60;;;;;;5054049;28;20210;-66
2022/04/13 03:10:13;;;;;;;9.65;7.20;;;11.90;90.90;;;;;;5056076;28;20301;-66
2022/04/13 03:12:42;;;;;;;11.52;6.38;;;11.90;91.30;;;;;;5064377;28;20245;-67
2022/04/13 03:15:09;;;;;;;9.80;6.25;;;11.80;91.70;;;;;;5063985;28;20838;-67
2022/04/13 03:17:36;;;;;;;9.18;7.20;;;11.80;92.00;;;;;;5061680;28;20235;-65
2022/04/13 03:20:04;;;;;;;8.13;6.70;;;11.80;92.20;;;;;;5069327;28;20684;-69
2022/04/13 03:22:31;;;;;;;9.30;6.30;;;11.80;92.20;;;;;;5055760;28;20623;-66
2022/04/13 03:25:00;;;;;;;10.07;6.20;;;11.80;92.40;;;;;;5056293;28;20229;-66
2022/04/13 03:27:27;;;;;;;8.52;6.53;;;11.80;92.60;;;;;;5057692;28;20211;-69
2022/04/13 03:29:56;;;;;;;10.15;6.93;;;11.70;92.70;;;;;;5056031;28;20223;-69
2022/04/13 03:32:36;;;;;;;7.90;6.50;;;11.70;92.90;;;;;;5059146;28;20258;-69
2022/04/13 03:35:04;;;;;;;14.10;6.07;;;11.70;93.10;;;;;;5066355;28;20228;-68
2022/04/13 03:37:31;;;;;;;9.85;5.47;;;11.70;93.20;;;;;;5059792;28;20294;-66
2022/04/13 03:39:59;;;;;;;11.15;7.20;;;11.70;93.20;;;;;;5057804;28;20288;-66
2022/04/13 03:42:26;;;;;;;10.00;6.95;;;11.60;93.40;;;;;;5056018;28;20291;-67
2022/04/13 03:44:53;;;;;;;10.43;6.28;;;11.50;94.10;;;;;;5069154;28;20265;-66
2022/04/13 03:47:20;;;;;;;8.55;6.90;;;11.50;94.00;;;;;;5063496;28;20286;-67
2022/04/13 03:49:47;;;;;;;7.40;6.22;;;11.50;94.40;;;;;;5059726;28;20199;-68
2022/04/13 03:52:14;;;;;;;7.90;6.30;;;11.30;94.70;;;;;;5054815;28;20211;-68
2022/04/13 03:54:41;;;;;;;9.10;7.47;;;11.40;94.90;;;;;;5055282;28;20311;-66
2022/04/13 03:57:12;;;;;;;9.85;7.05;;;11.40;95.10;;;;;;5058069;28;20208;-69
2022/04/13 03:59:39;;;;;;;10.52;6.93;;;11.40;95.30;;;;;;5061062;28;20212;-69
2022/04/13 04:02:06;;;;;;;8.30;6.57;;;11.40;95.20;;;;;;5055032;28;20206;-69
2022/04/13 04:04:34;;;;;;;11.40;8.20;;;11.40;95.30;;;;;;5054977;28;20227;-67
2022/04/13 04:07:01;;;;;;;6.93;5.95;;;11.40;95.30;;;;;;5060068;28;20230;-66
2022/04/13 04:09:28;;;;;;;6.65;5.90;;;11.30;95.50;;;;;;5058324;28;20220;-70
2022/04/13 04:11:55;;;;;;;8.57;7.30;;;11.30;95.90;;;;;;5054756;28;20208;-67
2022/04/13 04:14:24;;;;;;;13.80;6.78;;;11.30;95.90;;;;;;5049163;28;20219;-67
2022/04/13 04:16:51;;;;;;;9.32;6.13;;;11.20;95.90;;;;;;5061181;28;20247;-67
2022/04/13 04:19:18;;;;;;;8.48;5.80;;;11.20;96.20;;;;;;5057736;28;20245;-66
2022/04/13 04:21:45;;;;;;;8.35;5.60;;;11.10;96.30;;;;;;5060440;28;20283;-68
2022/04/13 04:24:12;;;;;;;9.57;6.53;;;11.10;96.80;;;;;;5057283;28;20226;-67
2022/04/13 04:26:39;;;;;;;9.70;6.00;;;11.10;96.60;;;;;;5068593;28;20574;-68
2022/04/13 04:29:07;;;;;;;8.45;6.78;;;11.10;96.90;;;;;;5063292;28;20202;-67
2022/04/13 04:34:24;;;;;;;9.38;7.07;;;11.20;96.70;;;;;;5046710;28;20230;-67
2022/04/13 04:36:51;;;;;;;8.25;6.95;;;11.20;96.50;;;;;;5062333;28;20666;-67
2022/04/13 04:39:18;;;;;;;10.35;6.13;;;11.10;96.50;;;;;;5054239;28;20283;-68
2022/04/13 04:41:47;;;;;;;8.82;6.00;;;11.10;97.00;;;;;;5057449;28;20231;-67
2022/04/13 04:44:13;;;;;;;12.90;7.00;;;11.00;97.10;;;;;;5060698;28;20226;-67
2022/04/13 04:46:42;;;;;;;8.20;6.75;;;11.10;97.20;;;;;;5059324;28;20206;-67
2022/04/13 04:49:09;;;;;;;9.38;7.20;;;11.20;97.50;;;;;;5060661;28;20226;-67
2022/04/13 04:51:36;;;;;;;9.63;6.57;;;11.20;96.90;;;;;;5060403;28;20226;-68
2022/04/13 04:54:04;;;;;;;10.63;6.80;;;11.20;96.80;;;;;;5053901;28;20615;-68
2022/04/13 04:56:31;;;;;;;15.98;8.63;;;11.20;96.90;;;;;;5054494;28;20193;-67
2022/04/13 04:58:58;;;;;;;8.93;6.47;;;11.20;97.00;;;;;;5054472;28;20243;-68
2022/04/13 05:01:26;;;;;;;9.02;6.25;;;11.20;96.90;;;;;;5053439;28;20290;-69
2022/04/13 05:03:54;;;;;;;9.90;7.53;;;11.30;96.90;;;;;;5054143;28;20224;-66
2022/04/13 05:06:22;;;;;;;10.00;8.15;;;11.30;96.60;;;;;;5054003;28;20200;-68
2022/04/13 05:08:50;;;;;;;8.10;7.05;;;11.40;96.50;;;;;;5053864;28;20258;-66
2022/04/13 05:11:17;;;;;;;12.13;6.70;;;11.30;96.70;;;;;;5051871;28;20306;-67
2022/04/13 05:13:45;;;;;;;7.70;6.90;;;11.40;96.60;;;;;;5049040;28;20205;-69
2022/04/13 05:16:13;;;;;;;10.90;7.95;;;11.50;96.50;;;;;;5057560;28;20684;-66
2022/04/13 05:18:41;;;;;;;8.43;6.78;;;11.40;96.20;;;;;;5060349;28;20660;-67
2022/04/13 05:21:09;;;;;;;10.50;7.03;;;11.40;96.40;;;;;;5057440;28;20252;-66
2022/04/13 05:23:37;;;;;;;9.48;7.80;;;11.50;96.30;;;;;;5058892;28;20271;-67
2022/04/13 05:26:04;;;;;;;12.60;7.85;;;11.50;96.50;;;;;;5046028;28;20197;-67
2022/04/13 05:28:31;;;;;;;12.45;7.28;;;11.50;96.50;;;;;;5058239;28;20201;-67
2022/04/13 05:30:58;;;;;;;11.25;7.15;;;11.60;96.30;;;;;;5056024;28;20260;-67
2022/04/13 05:33:25;;;;;;;9.85;6.97;;;11.80;96.10;;;;;;5059449;28;20292;-69
2022/04/13 05:35:52;;;;;;;18.98;7.60;;;11.90;95.80;;;;;;5059649;28;20241;-67
2022/04/13 05:38:21;;;;;;;12.55;7.90;;;11.90;95.60;;;;;;5061382;28;20222;-67
2022/04/13 05:40:48;;;;;;;11.15;6.95;;;11.80;95.70;;;;;;5052761;28;20644;-68
2022/04/13 05:43:17;;;;;;;9.13;7.05;;;11.80;96.00;;;;;;5054807;28;20201;-68
2022/04/13 05:45:43;;;;;;;8.50;7.55;;;12.00;95.80;;;;;;5055139;28;20216;-68
2022/04/13 05:48:10;;;;;;;10.27;7.53;;;12.20;95.30;;;;;;5061556;28;20213;-68
2022/04/13 05:50:37;;;;;;;9.07;7.50;;;12.30;95.20;;;;;;5057368;28;20320;-67
2022/04/13 05:53:05;;;;;;;13.70;8.10;;;12.40;95.00;;;;;;5056490;28;20201;-69
2022/04/13 05:55:33;;;;;;;11.32;8.25;;;12.40;94.90;;;;;;5059680;28;20265;-68
2022/04/13 05:58:00;;;;;;;12.73;8.73;;;12.50;94.80;;;;;;5056697;28;20245;-69
2022/04/13 06:00:27;;;;;;;8.88;7.45;;;12.60;94.80;;;;;;5066657;28;20661;-69
2022/04/13 06:02:54;;;;;;;12.25;9.25;;;12.80;94.30;;;;;;5070627;28;20203;-69
2022/04/13 06:05:22;;;;;;;14.35;8.48;;;13.00;93.80;;;;;;5058210;28;20314;-69
2022/04/13 06:07:49;;;;;;;9.68;7.03;;;13.30;93.50;;;;;;5057100;28;20260;-70
2022/04/13 06:10:19;;;;;;;12.43;8.10;;;13.60;93.40;;;;;;5060202;28;20202;-75
2022/04/13 06:12:49;;;;;;;10.23;7.60;;;13.90;92.50;;;;;;5073771;28;20301;-75
2022/04/13 06:15:16;;;;;;;10.38;8.40;;;14.40;91.90;;;;;;5070623;28;20204;-77
2022/04/13 06:18:32;;;;;;;12.25;8.35;;;15.00;91.00;;;;;;5071766;28;20208;-80
2022/04/13 06:20:59;;;;;;;16.35;8.27;;;15.70;90.20;;;;;;5055975;28;20189;-79
2022/04/13 06:23:27;;;;;;;10.07;7.07;;;16.00;87.80;;;;;;5058615;28;20300;-81
2022/04/13 06:25:54;;;;;;;10.23;8.00;;;16.40;87.10;;;;;;5068009;28;20240;-77
2022/04/13 06:28:22;;;;;;;11.23;7.13;;;16.90;85.20;;;;;;5061427;28;20199;-77
2022/04/13 06:30:49;;;;;;;16.58;9.30;;;16.70;84.40;;;;;;5056539;28;21007;-76
2022/04/13 06:33:16;;;;;;;11.10;8.27;;;16.60;84.30;;;;;;5054876;28;20201;-77
2022/04/13 06:35:43;;;;;;;16.50;9.35;;;16.20;84.60;;;;;;5057901;28;20846;-78
2022/04/13 06:38:10;;;;;;;12.40;8.60;;;16.00;85.60;;;;;;5063594;28;20290;-76
2022/04/13 06:40:37;;;;;;;18.70;9.32;;;15.90;86.20;;;;;;5059182;28;20229;-78
2022/04/13 06:43:04;;;;;;;12.45;8.15;;;15.90;86.70;;;;;;5055767;28;20675;-78
2022/04/13 06:45:33;;;;;;;14.55;8.75;;;16.20;87.00;;;;;;5057422;28;20307;-77
2022/04/13 06:48:01;;;;;;;9.55;8.40;;;16.10;86.60;;;;;;5064265;28;20600;-77
2022/04/13 06:50:28;;;;;;;11.05;9.25;;;16.00;86.50;;;;;;5064043;28;20262;-77
2022/04/13 06:52:55;;;;;;;10.90;8.57;;;16.10;87.20;;;;;;5058902;28;20240;-77
2022/04/13 06:55:22;;;;;;;10.35;8.75;;;16.10;87.40;;;;;;5057032;28;20329;-77
2022/04/13 06:57:49;;;;;;;12.57;9.57;;;15.80;87.60;;;;;;5075776;28;20202;-76
2022/04/13 07:00:16;;;;;;;13.52;10.02;;;15.70;88.00;;;;;;5058931;28;20242;-77
2022/04/13 07:02:45;;;;;;;11.68;8.43;;;15.50;88.70;;;;;;5062095;28;20279;-76
2022/04/13 07:05:12;;;;;;;13.75;8.88;;;15.40;89.40;;;;;;5063614;28;20231;-76
2022/04/13 07:07:39;;;;;;;17.70;10.30;;;15.20;90.10;;;;;;5064195;28;20243;-75
2022/04/13 07:10:06;;;;;;;12.20;9.35;;;15.10;90.50;;;;;;5061926;28;20200;-74
2022/04/13 07:12:35;;;;;;;9.60;8.63;;;15.20;90.80;;;;;;5057509;28;20219;-72
2022/04/13 07:15:02;;;;;;;11.13;9.20;;;15.30;90.80;;;;;;5051456;28;20254;-75
2022/04/13 07:17:29;;;;;;;9.90;8.38;;;15.70;90.90;;;;;;5056534;28;20204;-77
2022/04/13 07:19:58;;;;;;;10.25;9.20;;;16.10;90.40;;;;;;5056879;28;20292;-76
2022/04/13 07:22:26;;;;;;;10.45;8.00;;;16.50;90.40;;;;;;5068939;28;20288;-74
2022/04/13 07:24:55;;;;;;;10.15;7.80;;;16.30;88.30;;;;;;5059688;28;20233;-77
2022/04/13 07:27:22;;;;;;;9.45;7.63;;;16.30;89.80;;;;;;5057327;28;20289;-79
2022/04/13 07:29:49;;;;;;;12.07;8.38;;;16.40;88.50;;;;;;5063764;28;20301;-77
2022/04/13 07:32:16;;;;;;;13.85;10.15;;;16.20;88.90;;;;;;5056630;28;20671;-78
2022/04/13 07:34:43;;;;;;;14.85;9.68;;;16.30;89.80;;;;;;5056165;28;20699;-78
2022/04/13 07:37:11;;;;;;;10.52;8.15;;;16.40;90.00;;;;;;5052786;28;20214;-76
2022/04/13 07:39:38;;;;;;;11.68;8.90;;;16.50;90.20;;;;;;5069993;28;20293;-77
2022/04/13 07:42:05;;;;;;;13.07;8.38;;;16.60;90.00;;;;;;5065794;28;20229;-78
2022/04/13 07:44:33;;;;;;;10.40;7.78;;;16.70;89.20;;;;;;5063733;28;20218;-79
2022/04/13 07:47:00;;;;;;;10.48;8.10;;;16.90;89.20;;;;;;5061176;28;20203;-77
2022/04/13 07:49:27;;;;;;;11.75;7.65;;;16.90;89.20;;;;;;5057599;28;20992;-77
2022/04/13 07:51:54;;;;;;;8.77;7.38;;;16.90;89.50;;;;;;5061293;28;20222;-76
2022/04/13 07:54:23;;;;;;;11.52;8.88;;;16.80;89.70;;;;;;5061759;28;20221;-78
2022/04/13 07:56:50;;;;;;;9.40;7.88;;;16.90;90.20;;;;;;5055264;28;20206;-77
2022/04/13 07:59:17;;;;;;;11.13;7.80;;;16.90;89.80;;;;;;5055518;28;20555;-79
2022/04/13 08:01:45;;;;;;;9.60;7.90;;;17.10;90.20;;;;;;5058446;28;20441;-77
2022/04/13 08:04:12;;;;;;;8.33;7.47;;;17.30;90.20;;;;;;5056920;28;20219;-78
2022/04/13 08:06:39;;;;;;;13.10;8.73;;;17.90;89.60;;;;;;5056711;28;20482;-78
2022/04/13 08:09:06;;;;;;;12.13;7.17;;;18.50;87.30;;;;;;5060715;28;20541;-77
2022/04/13 08:11:34;;;;;;;10.03;7.90;;;19.60;86.30;;;;;;5064573;28;20919;-77
2022/04/13 08:14:02;;;;;;;10.60;7.60;;;20.70;84.50;;;;;;5056316;28;20901;-78
2022/04/13 08:16:29;;;;;;;12.37;8.23;;;21.40;80.40;;;;;;5055841;28;20461;-78
2022/04/13 08:18:57;;;;;;;11.10;7.73;;;22.10;78.10;;;;;;5057747;28;20918;-81
2022/04/13 08:21:24;;;;;;;11.43;7.00;;;22.50;76.70;;;;;;5055532;28;20445;-78
2022/04/13 08:23:51;;;;;;;10.90;7.97;;;22.60;75.70;;;;;;5064500;28;20964;-81
2022/04/13 08:26:18;;;;;;;10.40;8.40;;;23.10;75.60;;;;;;5058341;28;20447;-78
2022/04/13 08:28:47;;;;;;;8.60;7.67;;;23.40;74.50;;;;;;5060832;28;20449;-79
2022/04/13 08:31:14;;;;;;;11.67;7.97;;;24.00;74.20;;;;;;5057192;28;20505;-81
2022/04/13 08:33:41;;;;;;;10.30;7.73;;;24.50;72.60;;;;;;5056695;28;20795;-78
2022/04/13 08:36:07;;;;;;;13.70;7.53;;;25.00;71.30;;;;;;5065773;28;20452;-78
2022/04/13 08:38:36;;;;;;;12.03;7.80;;;24.70;69.80;;;;;;5072947;28;20455;-77
2022/04/13 08:41:10;;;;;;;10.10;8.70;;;24.00;71.20;;;;;;5060382;28;20454;-80
2022/04/13 08:43:45;;;;;;;12.87;8.03;;;23.80;72.00;;;;;;5058459;28;20470;-81
2022/04/13 08:46:19;;;;;;;13.00;8.30;;;24.30;72.50;;;;;;5061738;28;20484;-78
2022/04/13 08:48:47;;;;;;;11.77;9.97;;;25.20;70.90;;;;;;5062446;28;20444;-78
2022/04/13 08:51:17;;;;;;;11.77;9.20;;;24.90;69.60;;;;;;5073197;28;20820;-79
2022/04/13 08:53:45;;;;;;;12.37;9.50;;;24.90;70.80;;;;;;5065592;28;20645;-79
2022/04/13 08:56:17;;;;;;;11.13;9.23;;;25.60;69.60;;;;;;5065057;28;20447;-81
2022/04/13 08:58:51;;;;;;;12.80;9.63;;;24.70;70.00;;;;;;5057709;28;20508;-79
2022/04/13 09:01:27;;;;;;;13.90;9.80;;;24.90;71.20;;;;;;5060257;28;20503;-79
2022/04/13 09:03:58;;;;;;;16.33;9.50;;;25.40;70.40;;;;;;5061072;28;20549;-81
2022/04/13 09:06:28;;;;;;;18.90;10.63;;;25.30;69.30;;;;;;5084602;28;20513;-81
2022/04/13 09:09:00;;;;;;;12.27;9.30;;;25.10;69.20;;;;;;5071807;28;20458;-81
2022/04/13 09:11:28;;;;;;;12.53;9.57;;;25.10;70.30;;;;;;5084510;28;20450;-81
2022/04/13 09:13:56;;;;;;;12.53;10.07;;;25.30;70.00;;;;;;5071522;28;20482;-79
2022/04/13 09:16:25;;;;;;;13.77;9.63;;;25.80;69.20;;;;;;5078970;28;20465;-79
2022/04/13 09:18:52;;;;;;;15.50;10.87;;;26.50;68.00;;;;;;5059373;28;20482;-75
2022/04/13 09:21:20;;;;;;;15.13;10.63;;;26.90;67.30;;;;;;5051669;28;20481;-80
2022/04/13 09:23:47;;;;;;;14.43;10.70;;;26.90;65.40;;;;;;5059770;28;20479;-77
2022/04/13 09:26:15;;;;;;;18.33;11.37;;;26.50;65.90;;;;;;5045691;28;20474;-76
2022/04/13 09:28:43;;;;;;;21.30;12.30;;;26.70;65.80;;;;;;5053463;28;20521;-77
2022/04/13 09:31:10;;;;;;;19.67;14.23;;;27.30;65.50;;;;;;5053732;28;20789;-77
2022/04/13 09:33:38;;;;;;;21.80;12.60;;;27.80;63.60;;;;;;5052611;28;20967;-78
2022/04/13 09:36:06;;;;;;;23.90;13.53;;;28.20;63.60;;;;;;5053997;28;20449;-78
2022/04/13 09:38:35;;;;;;;25.37;14.20;;;28.50;62.00;;;;;;5054048;28;20448;-80
2022/04/13 09:41:08;;;;;;;23.83;12.83;;;28.60;61.90;;;;;;5053205;28;20874;-79
2022/04/13 09:43:35;;;;;;;19.80;13.17;;;28.80;61.30;;;;;;5055204;28;20473;-79
2022/04/13 09:46:03;;;;;;;23.77;13.83;;;28.50;60.80;;;;;;5061179;28;20532;-80
2022/04/13 09:48:30;;;;;;;21.00;13.77;;;27.70;61.40;;;;;;5062766;28;20452;-76
2022/04/13 09:51:02;;;;;;;25.87;13.50;;;27.40;63.70;;;;;;5058431;28;20469;-78
2022/04/13 09:53:29;;;;;;;24.80;14.13;;;27.50;62.90;;;;;;5059227;28;20454;-77
2022/04/13 09:56:00;;;;;;;21.03;14.63;;;27.50;63.40;;;;;;5048830;28;20546;-77
2022/04/13 09:58:29;;;;;;;20.80;13.90;;;27.50;64.10;;;;;;5052994;28;20516;-80
2022/04/13 10:01:00;;;;;;;22.30;13.80;;;27.70;63.30;;;;;;5052818;28;20453;-78
2022/04/13 10:03:27;;;;;;;26.53;15.47;;;27.40;63.80;;;;;;5053037;28;20500;-79
2022/04/13 10:05:56;;;;;;;25.87;15.83;;;26.70;64.80;;;;;;5069829;28;20604;-76
2022/04/13 10:08:25;;;;;;;24.80;14.67;;;27.20;65.70;;;;;;5053274;28;20521;-77
2022/04/13 10:10:56;;;;;;;18.17;13.47;;;27.50;63.80;;;;;;5060794;28;20446;-78
2022/04/13 10:13:34;;;;;;;26.23;15.10;;;27.50;62.70;;;;;;5044745;28;20449;-77
2022/04/13 10:16:02;;;;;;;22.60;15.43;;;26.60;63.90;;;;;;5052498;28;20496;-77
2022/04/13 10:18:31;;;;;;;28.27;15.43;;;26.40;65.70;;;;;;5053643;28;20449;-80
2022/04/13 10:20:58;;;;;;;24.20;14.07;;;26.40;67.00;;;;;;5053166;28;20450;-76
2022/04/13 10:23:26;;;;;;;19.33;14.63;;;26.60;67.00;;;;;;5065766;28;20537;-78
2022/04/13 10:26:09;;;;;;;23.73;14.30;;;26.50;66.20;;;;;;5055618;28;20484;-79
2022/04/13 10:28:48;;;;;;;21.20;14.10;;;26.50;66.50;;;;;;5044253;28;20463;-77
2022/04/13 10:31:15;;;;;;;26.73;15.53;;;27.00;65.80;;;;;;5060004;28;20924;-78
2022/04/13 10:33:47;;;;;;;24.60;15.67;;;27.10;66.00;;;;;;5064098;28;20472;-79
2022/04/13 10:36:15;;;;;;;24.90;15.67;;;27.20;65.60;;;;;;5065044;28;20495;-78
2022/04/13 10:38:46;;;;;;;24.13;14.93;;;27.50;64.40;;;;;;5054479;28;20551;-78
2022/04/13 10:41:17;;;;;;;23.67;15.00;;;27.50;64.00;;;;;;5053867;28;20442;-78
2022/04/13 10:43:49;;;;;;;27.20;16.00;;;26.90;64.90;;;;;;5052401;28;20643;-79
2022/04/13 10:46:20;;;;;;;23.63;14.17;;;26.60;65.20;;;;;;5054195;28;20444;-78
2022/04/13 10:48:54;;;;;;;20.10;12.83;;;26.10;66.40;;;;;;5057140;28;20460;-78
2022/04/13 10:51:23;;;;;;;26.63;14.33;;;25.60;67.80;;;;;;5059459;28;20433;-77
2022/04/13 10:54:01;;;;;;;18.53;13.53;;;25.60;68.60;;;;;;5052785;28;20446;-77
2022/04/13 10:56:32;;;;;;;22.70;13.47;;;25.10;68.70;;;;;;5054665;28;20479;-78
2022/04/13 10:59:07;;;;;;;25.77;13.87;;;25.30;69.50;;;;;;5059254;28;20482;-79
2022/04/13 11:01:42;;;;;;;21.53;14.57;;;25.30;70.20;;;;;;5064190;28;20445;-78
2022/04/13 11:04:10;;;;;;;23.63;15.40;;;25.00;70.30;;;;;;5054709;28;20517;-78
2022/04/13 11:06:40;;;;;;;21.37;13.90;;;24.90;71.50;;;;;;5067793;28;20436;-77
2022/04/13 11:09:21;;;;;;;20.87;14.27;;;25.30;70.10;;;;;;5062083;28;20529;-78
2022/04/13 11:11:49;;;;;;;17.27;13.07;;;25.40;70.60;;;;;;5059371;28;20515;-77
2022/04/13 11:14:21;;;;;;;23.57;14.53;;;25.40;69.90;;;;;;5057351;28;20485;-78
2022/04/13 11:16:48;;;;;;;21.10;15.37;;;25.40;69.90;;;;;;5057364;28;20452;-78
2022/04/13 11:19:22;;;;;;;21.00;14.00;;;25.00;70.40;;;;;;5040274;28;20515;-79
2022/04/13 11:22:12;;;;;;;15.80;12.50;;;24.70;71.20;;;;;;5055287;28;20963;-78
2022/04/13 11:24:43;;;;;;;22.97;15.13;;;24.60;72.10;;;;;;5059352;28;20460;-79
2022/04/13 11:27:11;;;;;;;21.07;15.03;;;24.50;72.30;;;;;;5069998;28;20483;-79
2022/04/13 11:29:40;;;;;;;20.30;14.40;;;24.40;72.30;;;;;;5052196;28;20494;-78
2022/04/13 11:32:10;;;;;;;18.43;14.57;;;24.20;72.70;;;;;;5056085;28;20548;-78
2022/04/13 11:34:39;;;;;;;20.50;13.73;;;24.30;73.60;;;;;;5063660;28;20968;-80
2022/04/13 11:37:09;;;;;;;17.50;14.10;;;23.60;74.30;;;;;;5067097;28;20446;-77
2022/04/13 11:39:56;;;;;;;18.90;13.40;;;23.50;75.00;;;;;;5051205;28;20807;-79
2022/04/13 11:42:52;;;;;;;25.53;14.03;;;23.40;75.30;;;;;;5046735;28;20519;-78
2022/04/13 11:45:22;;;;;;;18.67;14.63;;;23.70;76.20;;;;;;5062112;28;20474;-78
2022/04/13 11:48:00;;;;;;;17.50;14.13;;;23.90;75.00;;;;;;5060932;28;20465;-79
2022/04/13 11:50:32;;;;;;;22.80;12.87;;;24.20;75.10;;;;;;5068459;28;20475;-78
2022/04/13 11:53:00;;;;;;;27.37;15.97;;;24.50;74.90;;;;;;5058870;28;20897;-77
2022/04/13 11:55:35;;;;;;;22.07;14.10;;;24.60;74.80;;;;;;5056200;28;20493;-77
2022/04/13 11:58:22;;;;;;;19.07;13.30;;;24.20;73.90;;;;;;5062410;28;20454;-78
2022/04/13 12:01:00;;;;;;;24.60;13.50;;;24.40;75.10;;;;;;5063119;28;20850;-79
2022/04/13 12:03:30;;;;;;;20.17;13.03;;;24.70;73.70;;;;;;5059812;28;20588;-79
2022/04/13 12:05:58;;;;;;;21.83;13.77;;;24.80;73.40;;;;;;5058543;28;20591;-79
2022/04/13 12:08:27;;;;;;;22.10;14.10;;;24.90;73.80;;;;;;5064726;28;20477;-79
2022/04/13 12:11:00;;;;;;;20.97;13.40;;;24.70;73.40;;;;;;5066259;28;20481;-80
2022/04/13 12:13:29;;;;;;;26.50;14.93;;;24.80;74.00;;;;;;5071963;28;20453;-78
2022/04/13 12:15:57;;;;;;;14.97;12.83;;;24.80;74.00;;;;;;5077995;28;20480;-77
2022/04/13 12:18:26;;;;;;;17.47;12.60;;;24.60;73.60;;;;;;5066019;28;20588;-78
2022/04/13 12:21:06;;;;;;;19.73;13.60;;;24.60;74.80;;;;;;5056513;28;20552;-78
2022/04/13 12:23:35;;;;;;;14.33;12.70;;;24.60;75.10;;;;;;5056170;28;21050;-77
2022/04/13 12:26:04;;;;;;;18.40;12.67;;;24.60;75.10;;;;;;5057298;28;20813;-78
2022/04/13 12:28:31;;;;;;;22.33;11.90;;;24.60;75.10;;;;;;5057703;28;20529;-78
2022/04/13 12:30:59;;;;;;;13.80;9.90;;;24.40;73.80;;;;;;5058116;28;20533;-78
2022/04/13 12:33:28;;;;;;;14.37;11.63;;;24.60;73.80;;;;;;5057659;28;20446;-77
2022/04/13 12:35:58;;;;;;;17.50;11.70;;;24.70;72.80;;;;;;5059792;28;20569;-79
2022/04/13 12:38:28;;;;;;;16.83;11.20;;;24.70;73.40;;;;;;5063192;28;20525;-77
2022/04/13 12:41:12;;;;;;;18.13;11.67;;;24.80;73.60;;;;;;5065545;28;20528;-79
2022/04/13 12:43:42;;;;;;;15.60;10.40;;;24.70;73.10;;;;;;5063594;28;20802;-78
2022/04/13 12:46:15;;;;;;;19.87;12.07;;;24.80;73.30;;;;;;5064980;28;20517;-79
2022/04/13 12:48:44;;;;;;;16.90;11.23;;;25.10;73.20;;;;;;5055217;28;20442;-78